createdAt,value
2022-12-23T00:00:29.542Z,65.35
2022-12-23T00:02:56.784Z,65.44
2022-12-23T00:05:23.792Z,65.17
2022-12-23T00:07:50.712Z,65.21
2022-12-23T00:10:17.654Z,65.24
2022-12-23T00:13:03.128Z,65.33
2022-12-23T00:15:30.012Z,65.16
2022-12-23T00:17:56.925Z,65.19
2022-12-23T00:20:23.905Z,65.47
2022-12-23T00:23:05.567Z,65.32
2022-12-23T00:25:41.736Z,65.52
2022-12-23T00:28:18.473Z,65.16
2022-12-23T00:30:59.766Z,65.30
2022-12-23T00:33:31.225Z,65.20
2022-12-23T00:35:58.416Z,65.16
2022-12-23T00:38:45.170Z,65.62
2022-12-23T00:41:36.500Z,65.38
2022-12-23T00:44:04.854Z,65.37
2022-12-23T00:46:32.070Z,65.44
2022-12-23T00:49:17.325Z,65.21
2022-12-23T00:51:44.246Z,65.26
2022-12-23T00:54:11.148Z,65.13
2022-12-23T00:56:38.043Z,65.08
2022-12-23T00:59:04.932Z,65.09
2022-12-23T01:01:50.695Z,65.17
2022-12-23T01:04:36.470Z,64.91
2022-12-23T01:07:04.909Z,65.11
2022-12-23T01:09:32.099Z,65.28
2022-12-23T01:11:59.028Z,65.12
2022-12-23T01:14:26.364Z,65.15
2022-12-23T01:16:53.363Z,65.27
2022-12-23T01:19:20.262Z,65.17
2022-12-23T01:21:47.200Z,64.97
2022-12-23T01:24:14.165Z,65.17
2022-12-23T01:26:41.040Z,64.99
2022-12-23T01:29:07.914Z,64.97
2022-12-23T01:31:34.929Z,65.08
2022-12-23T01:34:01.914Z,64.97
2022-12-23T01:36:28.837Z,65.12
2022-12-23T01:38:57.169Z,65.00
2022-12-23T01:41:45.672Z,64.98
2022-12-23T01:44:51.951Z,65.18
2022-12-23T01:47:40.318Z,65.12
2022-12-23T01:50:20.698Z,64.78
2022-12-23T01:53:08.739Z,65.03
2022-12-23T01:55:43.726Z,64.45
2022-12-23T01:58:16.783Z,64.67
2022-12-23T02:01:02.560Z,64.42
2022-12-23T02:03:42.864Z,64.92
2022-12-23T02:06:45.472Z,64.71
2022-12-23T02:09:19.608Z,64.81
2022-12-23T02:12:27.184Z,64.74
2022-12-23T02:15:40.889Z,64.92
2022-12-23T02:18:39.602Z,65.10
2022-12-23T02:21:13.433Z,64.68
2022-12-23T02:24:07.006Z,64.88
2022-12-23T02:27:00.752Z,65.09
2022-12-23T02:30:04.413Z,64.76
2022-12-23T02:32:44.043Z,64.82
2022-12-23T02:35:29.303Z,65.27
2022-12-23T02:38:04.816Z,64.93
2022-12-23T02:41:05.737Z,64.39
2022-12-23T02:43:51.671Z,64.88
2022-12-23T02:46:38.656Z,64.80
2022-12-23T02:49:21.952Z,64.64
2022-12-23T02:51:53.833Z,64.56
2022-12-23T02:54:32.463Z,64.46
2022-12-23T02:57:03.590Z,64.43
2022-12-23T02:59:37.419Z,64.83
2022-12-23T03:02:04.415Z,64.62
2022-12-23T03:04:31.483Z,65.08
2022-12-23T03:07:07.401Z,64.77
2022-12-23T03:10:27.001Z,64.58
2022-12-23T03:13:48.015Z,64.81
2022-12-23T03:16:28.888Z,65.04
2022-12-23T03:19:35.054Z,64.70
2022-12-23T03:22:35.320Z,64.76
2022-12-23T03:25:18.694Z,64.99
2022-12-23T03:27:52.910Z,65.00
2022-12-23T03:30:22.446Z,64.82
2022-12-23T03:33:01.324Z,64.71
2022-12-23T03:35:46.664Z,64.72
2022-12-23T03:38:16.804Z,64.61
2022-12-23T03:40:49.572Z,64.68
2022-12-23T03:43:50.397Z,64.67
2022-12-23T03:46:25.781Z,64.64
2022-12-23T03:48:58.196Z,64.57
2022-12-23T03:51:34.059Z,64.58
2022-12-23T03:54:13.145Z,64.70
2022-12-23T03:56:46.256Z,64.75
2022-12-23T03:59:27.187Z,64.58
2022-12-23T04:02:06.624Z,64.59
2022-12-23T04:04:49.782Z,64.33
2022-12-23T04:07:24.010Z,64.53
2022-12-23T04:09:53.437Z,64.47
2022-12-23T04:12:24.773Z,64.40
2022-12-23T04:14:52.517Z,64.39
2022-12-23T04:17:20.249Z,64.10
2022-12-23T04:19:47.412Z,64.31
2022-12-23T04:22:15.667Z,64.24
2022-12-23T04:24:43.114Z,64.31
2022-12-23T04:27:13.972Z,64.41
2022-12-23T04:29:41.020Z,64.28
2022-12-23T04:32:08.205Z,64.25
2022-12-23T04:34:35.135Z,64.19
2022-12-23T04:37:02.057Z,64.09
2022-12-23T04:39:29.026Z,64.13
2022-12-23T04:41:55.906Z,64.23
2022-12-23T04:44:22.839Z,64.26
2022-12-23T04:46:49.775Z,64.29
2022-12-23T04:49:16.699Z,64.10
2022-12-23T04:51:43.582Z,64.11
2022-12-23T04:54:10.533Z,64.07
2022-12-23T04:56:37.454Z,64.19
2022-12-23T04:59:04.416Z,63.94
2022-12-23T05:01:31.443Z,63.94
2022-12-23T05:03:58.483Z,64.15
2022-12-23T05:06:25.396Z,63.83
2022-12-23T05:08:52.311Z,64.07
2022-12-23T05:11:19.284Z,64.21
2022-12-23T05:13:46.168Z,63.98
2022-12-23T05:16:13.120Z,64.30
2022-12-23T05:18:40.037Z,64.01
2022-12-23T05:21:06.934Z,64.17
2022-12-23T05:23:33.873Z,64.09
2022-12-23T05:26:00.852Z,64.17
2022-12-23T05:28:27.753Z,64.19
2022-12-23T05:31:02.115Z,64.08
2022-12-23T05:33:30.063Z,64.11
2022-12-23T05:35:57.671Z,64.11
2022-12-23T05:38:25.178Z,64.17
2022-12-23T05:40:52.108Z,63.80
2022-12-23T05:43:19.222Z,63.80
2022-12-23T05:45:47.519Z,63.77
2022-12-23T05:48:14.474Z,63.63
2022-12-23T05:50:41.773Z,63.80
2022-12-23T05:53:09.255Z,63.79
2022-12-23T05:55:36.393Z,63.96
2022-12-23T05:58:03.301Z,64.00
2022-12-23T06:00:30.216Z,63.99
2022-12-23T06:02:57.413Z,64.01
2022-12-23T06:05:24.434Z,64.04
2022-12-23T06:07:51.361Z,63.93
2022-12-23T06:10:18.656Z,64.35
2022-12-23T06:12:45.600Z,64.05
2022-12-23T06:15:12.700Z,63.82
2022-12-23T06:17:39.590Z,64.10
2022-12-23T06:20:07.466Z,64.25
2022-12-23T06:22:34.350Z,64.35
2022-12-23T06:25:01.258Z,64.01
2022-12-23T06:27:28.194Z,64.18
2022-12-23T06:29:55.129Z,64.07
2022-12-23T06:32:22.017Z,64.13
2022-12-23T06:34:53.208Z,63.79
2022-12-23T06:37:21.166Z,64.00
2022-12-23T06:39:48.127Z,64.13
2022-12-23T06:42:15.001Z,63.94
2022-12-23T06:44:41.919Z,63.84
2022-12-23T06:47:08.816Z,64.08
2022-12-23T06:49:35.718Z,64.12
2022-12-23T06:52:02.741Z,63.98
2022-12-23T06:54:29.694Z,64.08
2022-12-23T06:56:56.590Z,64.24
2022-12-23T06:59:23.666Z,64.04
2022-12-23T07:01:50.642Z,64.28
2022-12-23T07:04:17.702Z,64.20
2022-12-23T07:06:44.660Z,64.11
2022-12-23T07:09:11.585Z,64.20
2022-12-23T07:11:38.546Z,64.25
2022-12-23T07:14:05.547Z,63.97
2022-12-23T07:16:32.521Z,63.91
2022-12-23T07:18:59.551Z,64.07
2022-12-23T07:21:29.539Z,64.09
2022-12-23T07:23:56.869Z,64.44
2022-12-23T07:26:23.800Z,64.27
2022-12-23T07:28:50.690Z,64.57
2022-12-23T07:31:17.669Z,64.48
2022-12-23T07:33:44.847Z,64.43
2022-12-23T07:36:11.722Z,64.45
2022-12-23T07:38:38.609Z,64.44
2022-12-23T07:41:05.608Z,64.58
2022-12-23T07:43:32.612Z,64.54
2022-12-23T07:46:00.756Z,64.55
2022-12-23T07:48:28.331Z,64.63
2022-12-23T07:51:01.881Z,64.55
2022-12-23T07:53:28.989Z,64.63
2022-12-23T07:55:57.116Z,64.63
2022-12-23T07:58:24.734Z,64.57
2022-12-23T08:00:59.166Z,64.63
2022-12-23T08:03:26.149Z,64.47
2022-12-23T08:06:05.096Z,64.79
2022-12-23T08:08:32.995Z,64.84
2022-12-23T08:11:03.251Z,64.68
2022-12-23T08:13:32.580Z,64.58
2022-12-23T08:16:01.805Z,64.58
2022-12-23T08:18:32.047Z,64.71
2022-12-23T08:21:01.904Z,64.60
2022-12-23T08:23:30.663Z,64.65
2022-12-23T08:26:10.170Z,64.80
2022-12-23T08:28:38.918Z,64.71
2022-12-23T08:31:22.224Z,64.54
2022-12-23T08:33:52.942Z,64.76
2022-12-23T08:36:23.922Z,64.79
2022-12-23T08:38:53.318Z,64.69
2022-12-23T08:41:29.853Z,64.75
2022-12-23T08:43:57.521Z,64.65
2022-12-23T08:46:25.185Z,64.79
2022-12-23T08:48:52.808Z,64.91
2022-12-23T08:51:24.868Z,64.92
2022-12-23T08:53:59.868Z,64.90
2022-12-23T08:56:32.383Z,64.62
2022-12-23T08:58:59.815Z,65.12
2022-12-23T09:01:30.606Z,64.82
2022-12-23T09:03:57.996Z,64.69
2022-12-23T09:06:30.066Z,64.92
2022-12-23T09:08:58.483Z,65.09
2022-12-23T09:11:27.915Z,64.95
2022-12-23T09:13:56.021Z,64.98
2022-12-23T09:16:23.005Z,64.89
2022-12-23T09:18:49.963Z,65.21
2022-12-23T09:21:20.813Z,65.38
2022-12-23T09:23:48.266Z,65.19
2022-12-23T09:26:24.777Z,65.49
2022-12-23T09:28:52.018Z,65.54
2022-12-23T09:31:19.779Z,65.66
2022-12-23T09:33:48.250Z,65.22
2022-12-23T09:36:15.581Z,65.30
2022-12-23T09:38:42.749Z,65.73
2022-12-23T09:41:43.548Z,65.52
2022-12-23T09:44:26.235Z,65.29
2022-12-23T09:46:57.744Z,65.06
2022-12-23T09:49:24.797Z,65.45
2022-12-23T09:52:00.094Z,65.41
2022-12-23T09:54:30.968Z,65.33
2022-12-23T09:57:11.732Z,64.99
2022-12-23T10:00:11.568Z,64.87
2022-12-23T10:02:42.321Z,65.04
2022-12-23T10:05:48.218Z,65.15
2022-12-23T10:08:33.710Z,64.94
2022-12-23T10:11:16.950Z,65.10
2022-12-23T10:14:00.892Z,65.03
2022-12-23T10:16:39.428Z,64.74
2022-12-23T10:19:29.051Z,64.36
2022-12-23T10:22:06.177Z,64.59
2022-12-23T10:24:43.376Z,64.53
2022-12-23T10:27:32.613Z,64.42
2022-12-23T10:30:20.088Z,64.54
2022-12-23T10:33:08.810Z,64.32
2022-12-23T10:36:07.454Z,64.34
2022-12-23T10:38:51.898Z,64.35
2022-12-23T10:42:20.709Z,63.99
2022-12-23T10:45:32.762Z,64.18
2022-12-23T10:48:25.695Z,64.59
2022-12-23T10:51:15.071Z,64.95
2022-12-23T10:54:09.731Z,64.91
2022-12-23T10:56:37.179Z,64.75
2022-12-23T10:59:05.793Z,64.92
2022-12-23T11:01:33.137Z,64.99
2022-12-23T11:04:09.894Z,65.11
2022-12-23T11:06:44.336Z,65.15
2022-12-23T11:09:22.820Z,64.99
2022-12-23T11:12:12.227Z,64.81
2022-12-23T11:14:56.547Z,65.03
2022-12-23T11:17:28.099Z,65.15
2022-12-23T11:20:17.084Z,64.90
2022-12-23T11:22:51.785Z,65.17
2022-12-23T11:25:33.532Z,65.20
2022-12-23T11:28:12.305Z,65.01
2022-12-23T11:30:56.232Z,64.98
2022-12-23T11:33:36.566Z,64.67
2022-12-23T11:36:15.579Z,64.77
2022-12-23T11:39:12.156Z,64.80
2022-12-23T11:41:47.521Z,64.47
2022-12-23T11:44:31.000Z,64.61
2022-12-23T11:46:58.254Z,64.15
2022-12-23T11:49:33.880Z,64.49
2022-12-23T11:52:12.762Z,64.58
2022-12-23T11:54:40.354Z,64.49
2022-12-23T11:57:17.643Z,64.30
2022-12-23T11:59:51.242Z,64.75
2022-12-23T12:02:30.650Z,64.43
2022-12-23T12:05:18.500Z,64.57
2022-12-23T12:07:46.199Z,64.43
2022-12-23T12:10:21.673Z,64.93
2022-12-23T12:12:59.347Z,64.68
2022-12-23T12:15:48.528Z,64.49
2022-12-23T12:18:19.268Z,64.43
2022-12-23T12:20:53.967Z,63.99
2022-12-23T12:24:08.345Z,63.92
2022-12-23T12:26:40.728Z,63.94
2022-12-23T12:29:27.766Z,63.94
2022-12-23T12:32:00.333Z,63.77
2022-12-23T12:34:56.468Z,64.12
2022-12-23T12:37:45.443Z,63.76
2022-12-23T12:40:21.047Z,63.89
2022-12-23T12:43:22.071Z,63.62
2022-12-23T12:46:08.711Z,63.64
2022-12-23T12:49:02.419Z,63.69
2022-12-23T12:52:01.007Z,63.67
2022-12-23T12:54:52.969Z,63.60
2022-12-23T12:57:22.871Z,63.95
2022-12-23T12:59:59.929Z,63.53
2022-12-23T13:03:11.951Z,64.08
2022-12-23T13:06:40.048Z,63.52
2022-12-23T13:09:44.643Z,63.47
2022-12-23T13:13:11.202Z,63.33
2022-12-23T13:16:02.359Z,63.47
2022-12-23T13:19:01.064Z,63.37
2022-12-23T13:22:11.842Z,63.59
2022-12-23T13:25:18.471Z,63.22
2022-12-23T13:28:12.836Z,63.38
2022-12-23T13:30:47.322Z,63.65
2022-12-23T13:33:52.979Z,63.22
2022-12-23T13:36:47.578Z,63.27
2022-12-23T13:39:50.548Z,63.22
2022-12-23T13:42:34.353Z,63.32
2022-12-23T13:45:02.461Z,62.93
2022-12-23T13:48:05.301Z,63.13
2022-12-23T13:50:43.611Z,63.27
2022-12-23T13:53:30.936Z,62.78
2022-12-23T13:56:10.420Z,62.43
2022-12-23T13:58:40.004Z,62.58
2022-12-23T14:01:09.637Z,62.77
2022-12-23T14:03:39.147Z,62.75
2022-12-23T14:06:24.157Z,62.88
2022-12-23T14:08:53.435Z,62.83
2022-12-23T14:11:34.301Z,62.75
2022-12-23T14:14:05.149Z,62.74
2022-12-23T14:17:06.788Z,62.67
2022-12-23T14:19:53.989Z,62.97
2022-12-23T14:22:58.672Z,62.41
2022-12-23T14:25:31.661Z,62.41
2022-12-23T14:28:26.833Z,62.72
2022-12-23T14:30:53.805Z,62.69
2022-12-23T14:33:27.979Z,62.72
2022-12-23T14:35:58.458Z,62.35
2022-12-23T14:38:29.186Z,62.56
2022-12-23T14:41:38.477Z,62.35
2022-12-23T14:44:37.179Z,62.34
2022-12-23T14:47:33.017Z,62.20
2022-12-23T14:50:34.183Z,62.44
2022-12-23T14:53:23.230Z,62.31
2022-12-23T14:56:09.212Z,62.26
2022-12-23T14:59:09.068Z,62.29
2022-12-23T15:01:55.688Z,62.04
2022-12-23T15:04:40.660Z,62.07
2022-12-23T15:07:19.151Z,62.24
2022-12-23T15:10:00.670Z,62.13
2022-12-23T15:12:51.155Z,61.87
2022-12-23T15:15:25.394Z,62.05
2022-12-23T15:18:10.114Z,61.86
2022-12-23T15:20:37.018Z,62.33
2022-12-23T15:23:11.290Z,62.12
2022-12-23T15:25:46.369Z,62.08
2022-12-23T15:28:23.446Z,62.07
2022-12-23T15:30:54.400Z,61.72
2022-12-23T15:34:01.732Z,61.85
2022-12-23T15:36:12.574Z,62.02
2022-12-23T15:38:39.690Z,62.21
2022-12-23T15:41:15.828Z,61.91
2022-12-23T15:43:44.027Z,61.85
2022-12-23T15:46:28.620Z,61.94
2022-12-23T15:48:56.361Z,62.12
2022-12-23T15:52:11.017Z,62.04
2022-12-23T15:54:32.384Z,62.10
2022-12-23T15:57:01.486Z,61.88
2022-12-23T15:59:37.824Z,62.13
2022-12-23T16:05:32.503Z,62.05
2022-12-23T16:08:29.851Z,61.84
2022-12-23T16:11:18.057Z,62.15
2022-12-23T16:14:00.159Z,62.16
2022-12-23T16:16:42.880Z,62.19
2022-12-23T16:19:52.818Z,62.29
2022-12-23T16:22:37.297Z,62.04
2022-12-23T16:25:31.628Z,62.38
2022-12-23T16:28:15.159Z,62.35
2022-12-23T16:30:42.838Z,62.27
2022-12-23T16:33:42.026Z,62.27
2022-12-23T16:36:33.095Z,62.26
2022-12-23T16:39:17.424Z,62.40
2022-12-23T16:41:44.644Z,62.29
2022-12-23T16:44:11.616Z,62.55
2022-12-23T16:46:43.626Z,62.58
2022-12-23T16:49:18.120Z,62.69
2022-12-23T16:51:45.703Z,62.41
2022-12-23T16:54:17.322Z,62.33
2022-12-23T16:56:46.873Z,62.34
2022-12-23T16:59:14.737Z,62.16
2022-12-23T17:01:45.782Z,61.95
2022-12-23T17:04:12.982Z,62.13
2022-12-23T17:06:40.750Z,62.28
2022-12-23T17:09:10.255Z,61.96
2022-12-23T17:11:44.340Z,62.08
2022-12-23T17:14:21.437Z,61.97
2022-12-23T17:16:49.514Z,61.91
2022-12-23T17:19:23.373Z,61.97
2022-12-23T17:22:02.847Z,61.91
2022-12-23T17:24:29.857Z,61.99
2022-12-23T17:26:57.365Z,62.12
2022-12-23T17:29:24.412Z,62.18
2022-12-23T17:31:51.771Z,62.06
2022-12-23T17:34:24.567Z,62.17
2022-12-23T17:36:51.703Z,62.18
2022-12-23T17:39:20.776Z,62.08
2022-12-23T17:41:48.533Z,62.22
2022-12-23T17:44:17.137Z,61.92
2022-12-23T17:46:45.951Z,62.09
2022-12-23T17:49:13.122Z,62.15
2022-12-23T17:51:41.305Z,62.48
2022-12-23T17:54:24.450Z,62.48
2022-12-23T17:56:52.037Z,62.06
2022-12-23T17:59:19.942Z,62.13
2022-12-23T18:01:47.061Z,62.44
2022-12-23T18:04:13.992Z,62.22
2022-12-23T18:06:40.916Z,62.38
2022-12-23T18:09:07.786Z,62.40
2022-12-23T18:11:39.379Z,62.65
2022-12-23T18:14:07.655Z,62.38
2022-12-23T18:16:34.682Z,62.48
2022-12-23T18:19:01.613Z,62.73
2022-12-23T18:21:29.268Z,62.70
2022-12-23T18:23:59.626Z,62.49
2022-12-23T18:26:26.728Z,62.86
2022-12-23T18:28:54.335Z,62.59
2022-12-23T18:31:24.345Z,62.48
2022-12-23T18:33:52.114Z,62.36
2022-12-23T18:36:28.251Z,62.31
2022-12-23T18:38:55.315Z,62.42
2022-12-23T18:41:23.642Z,62.02
2022-12-23T18:43:51.308Z,61.97
2022-12-23T18:46:20.190Z,61.90
2022-12-23T18:48:47.234Z,62.15
2022-12-23T18:51:16.343Z,61.79
2022-12-23T18:53:43.663Z,61.77
2022-12-23T18:56:15.152Z,61.84
2022-12-23T18:58:42.186Z,61.76
2022-12-23T19:01:17.275Z,61.54
2022-12-23T19:03:45.185Z,61.46
2022-12-23T19:06:14.717Z,61.69
2022-12-23T19:08:42.927Z,61.63
2022-12-23T19:11:19.194Z,61.34
2022-12-23T19:13:46.806Z,61.21
2022-12-23T19:16:20.421Z,61.20
2022-12-23T19:18:48.751Z,61.26
2022-12-23T19:21:17.796Z,61.19
2022-12-23T19:23:45.129Z,61.36
2022-12-23T19:26:14.801Z,61.29
2022-12-23T19:28:42.489Z,61.48
2022-12-23T19:31:13.520Z,61.87
2022-12-23T19:33:42.477Z,61.52
2022-12-23T19:36:19.604Z,61.60
2022-12-23T19:38:47.425Z,61.56
2022-12-23T19:41:14.373Z,61.89
2022-12-23T19:43:44.847Z,61.85
2022-12-23T19:46:12.965Z,61.91
2022-12-23T19:48:40.372Z,61.72
2022-12-23T19:51:13.400Z,61.92
2022-12-23T19:53:41.859Z,61.93
2022-12-23T19:56:13.585Z,62.05
2022-12-23T19:58:42.879Z,62.33
2022-12-23T20:01:15.441Z,62.49
2022-12-23T20:03:43.548Z,62.80
2022-12-23T20:06:23.782Z,63.04
2022-12-23T20:08:54.958Z,63.17
2022-12-23T20:11:26.209Z,63.07
2022-12-23T20:13:54.551Z,63.14
2022-12-23T20:16:22.627Z,63.59
2022-12-23T20:18:49.687Z,63.70
2022-12-23T20:21:16.571Z,63.45
2022-12-23T20:23:43.471Z,63.63
2022-12-23T20:26:12.158Z,63.35
2022-12-23T20:28:39.228Z,63.41
2022-12-23T20:31:16.204Z,63.28
2022-12-23T20:33:45.204Z,63.34
2022-12-23T20:36:15.495Z,63.24
2022-12-23T20:38:44.998Z,63.10
2022-12-23T20:41:18.135Z,63.38
2022-12-23T20:43:56.932Z,63.25
2022-12-23T20:46:32.366Z,63.43
2022-12-23T20:48:59.301Z,63.42
2022-12-23T20:51:26.402Z,63.44
2022-12-23T20:53:56.139Z,63.50
2022-12-23T20:56:27.471Z,63.29
2022-12-23T20:58:55.195Z,63.38
2022-12-23T21:01:37.877Z,63.31
2022-12-23T21:04:09.395Z,63.27
2022-12-23T21:06:36.454Z,63.15
2022-12-23T21:09:06.743Z,63.29
2022-12-23T21:11:40.877Z,63.08
2022-12-23T21:14:08.167Z,62.96
2022-12-23T21:16:39.409Z,63.21
2022-12-23T21:19:14.920Z,63.41
2022-12-23T21:21:42.162Z,63.33
2022-12-23T21:24:10.455Z,63.33
2022-12-23T21:26:37.378Z,63.11
2022-12-23T21:29:06.714Z,63.14
2022-12-23T21:31:37.555Z,63.17
2022-12-23T21:34:04.876Z,62.86
2022-12-23T21:36:36.962Z,63.05
2022-12-23T21:39:05.979Z,63.13
2022-12-23T21:41:37.576Z,63.00
2022-12-23T21:44:05.426Z,62.81
2022-12-23T21:46:32.576Z,62.95
2022-12-23T21:48:59.960Z,62.68
2022-12-23T21:51:38.995Z,62.82
2022-12-23T21:54:07.762Z,62.99
2022-12-23T21:56:34.882Z,62.95
2022-12-23T21:59:08.453Z,63.12
2022-12-23T22:01:35.595Z,63.18
2022-12-23T22:04:02.810Z,63.20
2022-12-23T22:06:37.256Z,62.95
2022-12-23T22:09:05.983Z,63.01
2022-12-23T22:11:35.635Z,63.13
2022-12-23T22:14:04.817Z,63.24
2022-12-23T22:16:32.318Z,63.04
2022-12-23T22:19:01.003Z,62.97
2022-12-23T22:21:30.647Z,63.36
2022-12-23T22:23:58.579Z,63.66
2022-12-23T22:26:31.941Z,63.46
2022-12-23T22:29:03.114Z,63.53
2022-12-23T22:31:41.399Z,63.58
2022-12-23T22:34:12.591Z,63.55
2022-12-23T22:36:39.568Z,63.34
2022-12-23T22:39:07.812Z,63.45
2022-12-23T22:41:35.416Z,63.13
2022-12-23T22:44:02.419Z,63.32
2022-12-23T22:46:29.769Z,63.33
2022-12-23T22:48:58.659Z,63.21
2022-12-23T22:51:28.909Z,63.23
2022-12-23T22:53:56.533Z,63.15
2022-12-23T22:56:24.552Z,63.04
2022-12-23T22:58:52.938Z,63.26
2022-12-23T23:01:27.033Z,63.30
2022-12-23T23:03:57.844Z,63.28
2022-12-23T23:06:30.768Z,63.35
2022-12-23T23:08:58.193Z,63.62
2022-12-23T23:11:27.841Z,63.63
2022-12-23T23:13:55.581Z,63.52
2022-12-23T23:16:22.891Z,63.36
2022-12-23T23:18:50.875Z,63.89
2022-12-23T23:21:18.018Z,63.85
2022-12-23T23:23:45.252Z,63.63
2022-12-23T23:26:12.632Z,63.95
2022-12-23T23:28:40.806Z,63.83
2022-12-23T23:33:57.625Z,63.98
2022-12-23T23:36:24.603Z,64.06
2022-12-23T23:38:51.554Z,64.23
2022-12-23T23:41:22.976Z,64.04
2022-12-23T23:43:51.256Z,64.33
2022-12-23T23:46:18.415Z,64.41
2022-12-23T23:48:45.392Z,64.23
2022-12-23T23:51:12.712Z,64.26
2022-12-23T23:53:40.264Z,64.25
2022-12-23T23:56:08.664Z,64.54
2022-12-23T23:58:37.058Z,64.50
